createdAt,value
2022-10-10T00:04:11.251Z,28.6
2022-10-10T00:06:13.339Z,24.1
2022-10-10T00:08:16.519Z,25.3
2022-10-10T00:12:19.613Z,23.9
2022-10-10T00:14:21.708Z,25.4
2022-10-10T00:20:31.183Z,23.9
2022-10-10T00:22:33.258Z,26
2022-10-10T00:24:35.337Z,25.9
2022-10-10T00:26:37.438Z,25.9
2022-10-10T00:28:39.547Z,27.6
2022-10-10T00:30:44.752Z,26
2022-10-10T00:32:46.968Z,26.3
2022-10-10T00:34:48.946Z,26.2
2022-10-10T00:36:51.049Z,23.8
2022-10-10T00:38:53.113Z,24.7
2022-10-10T00:40:55.181Z,29.3
2022-10-10T00:42:57.272Z,27.4
2022-10-10T00:45:02.514Z,27.7
2022-10-10T00:47:04.600Z,27.3
2022-10-10T00:49:06.699Z,28.3
2022-10-10T00:51:29.808Z,28.7
2022-10-10T00:55:33.964Z,27.8
2022-10-10T00:57:39.200Z,29.7
2022-10-10T00:59:41.290Z,28.5
2022-10-10T01:01:43.395Z,27.9
2022-10-10T01:03:45.474Z,30.8
2022-10-10T01:05:47.549Z,28.8
2022-10-10T01:07:49.679Z,30.7
2022-10-10T01:09:51.735Z,30
2022-10-10T01:11:56.965Z,30
2022-10-10T01:13:59.081Z,29.6
2022-10-10T01:16:01.157Z,30.7
2022-10-10T01:20:05.334Z,32.3
2022-10-10T01:22:07.481Z,31.5
2022-10-10T01:24:09.538Z,31.3
2022-10-10T01:26:14.776Z,32.4
2022-10-10T01:28:17.006Z,32.8
2022-10-10T01:30:18.953Z,32.2
2022-10-10T01:32:21.030Z,31.4
2022-10-10T01:34:23.106Z,28.1
2022-10-10T01:36:25.181Z,31.8
2022-10-10T01:38:27.282Z,32.1
2022-10-10T01:40:32.533Z,31.4
2022-10-10T01:42:34.607Z,33.3
2022-10-10T01:44:36.698Z,32.5
2022-10-10T01:45:39.323Z,33.5
2022-10-10T01:47:41.389Z,31
2022-10-10T01:49:43.495Z,32.1
2022-10-10T01:51:45.593Z,29.1
2022-10-10T01:53:50.810Z,33
2022-10-10T01:55:52.903Z,29.5
2022-10-10T01:57:54.987Z,30.5
2022-10-10T01:59:57.085Z,31.2
2022-10-10T02:01:59.144Z,32
2022-10-10T02:04:01.248Z,30.2
2022-10-10T02:06:03.343Z,29.9
2022-10-10T02:08:08.582Z,28.9
2022-10-10T02:10:10.654Z,29.6
2022-10-10T02:12:12.760Z,30.4
2022-10-10T02:14:14.859Z,28.9
2022-10-10T02:16:16.926Z,28.5
2022-10-10T02:18:19.005Z,28.8
2022-10-10T02:20:21.107Z,29.5
2022-10-10T02:22:26.341Z,29.6
2022-10-10T02:24:28.428Z,27.1
2022-10-10T02:26:30.509Z,26.4
2022-10-10T02:28:32.757Z,26.5
2022-10-10T02:30:34.678Z,26.6
2022-10-10T02:32:36.763Z,25.7
2022-10-10T02:36:44.087Z,28.3
2022-10-10T02:38:46.161Z,26.3
2022-10-10T02:40:48.263Z,27.1
2022-10-10T02:41:50.859Z,30.7
2022-10-10T02:43:52.956Z,26.2
2022-10-10T02:45:55.041Z,25.4
2022-10-10T02:47:57.123Z,26.7
2022-10-10T02:50:02.398Z,28.1
2022-10-10T02:52:04.466Z,26.6
2022-10-10T02:54:06.557Z,27.4
2022-10-10T02:56:08.653Z,27.6
2022-10-10T02:58:10.731Z,25.7
2022-10-10T03:00:12.819Z,27.8
2022-10-10T03:02:14.911Z,26.7
2022-10-10T03:04:20.136Z,28.2
2022-10-10T03:06:22.221Z,28.6
2022-10-10T03:08:24.322Z,26.2
2022-10-10T03:10:26.414Z,30
2022-10-10T03:12:28.506Z,25.6
2022-10-10T03:14:30.580Z,25.5
2022-10-10T03:16:32.704Z,25.7
2022-10-10T03:18:37.950Z,29.6
2022-10-10T03:20:40.035Z,25.4
2022-10-10T03:22:42.102Z,28.5
2022-10-10T03:24:44.199Z,25.3
2022-10-10T03:26:46.285Z,23.9
2022-10-10T03:28:48.393Z,23.8
2022-10-10T03:30:50.489Z,23.4
2022-10-10T03:32:55.727Z,24.2
2022-10-10T03:34:57.825Z,23.7
2022-10-10T03:36:59.916Z,23.9
2022-10-10T03:38:02.547Z,25.3
2022-10-10T03:40:04.642Z,25.5
2022-10-10T03:42:06.734Z,24.4
2022-10-10T03:46:16.399Z,24.4
2022-10-10T03:48:17.739Z,23
2022-10-10T03:50:19.789Z,22.6
2022-10-10T03:52:21.916Z,24.6
2022-10-10T03:54:24.028Z,24.6
2022-10-10T03:56:26.126Z,21.8
2022-10-10T03:58:28.221Z,22.6
2022-10-10T04:00:33.500Z,23.5
2022-10-10T04:02:35.589Z,23.1
2022-10-10T04:04:37.682Z,21.8
2022-10-10T04:08:41.887Z,20.9
2022-10-10T04:10:43.985Z,20.9
2022-10-10T04:12:46.110Z,20.4
2022-10-10T04:14:51.357Z,22
2022-10-10T04:18:55.558Z,20.9
2022-10-10T04:20:57.666Z,19.6
2022-10-10T04:22:59.752Z,19.5
2022-10-10T04:25:01.861Z,20.5
2022-10-10T04:27:04.085Z,18.5
2022-10-10T04:29:09.228Z,20.2
2022-10-10T04:31:11.309Z,19.2
2022-10-10T04:33:13.412Z,18.6
2022-10-10T04:35:30.244Z,20.8
2022-10-10T04:37:32.365Z,21.5
2022-10-10T04:39:34.455Z,17.8
2022-10-10T04:41:39.688Z,20.1
2022-10-10T04:43:41.802Z,18.1
2022-10-10T04:45:43.877Z,17.4
2022-10-10T04:47:45.978Z,19.5
2022-10-10T04:49:48.077Z,15.3
2022-10-10T04:51:50.181Z,19
2022-10-10T04:53:52.267Z,17.3
2022-10-10T04:55:57.508Z,20.2
2022-10-10T04:57:59.574Z,18.8
2022-10-10T05:00:01.687Z,19.5
2022-10-10T05:02:03.781Z,17.8
2022-10-10T05:04:05.866Z,18.1
2022-10-10T05:06:07.967Z,16.2
2022-10-10T05:08:10.043Z,18
2022-10-10T05:12:17.368Z,18.4
2022-10-10T05:14:19.474Z,18.2
2022-10-10T05:16:21.532Z,17
2022-10-10T05:20:25.696Z,17.6
2022-10-10T05:22:27.791Z,18.7
2022-10-10T05:24:32.998Z,17.8
2022-10-10T05:26:37.582Z,18.1
2022-10-10T05:28:37.320Z,18.6
2022-10-10T05:29:39.828Z,17
2022-10-10T05:31:42.001Z,16.2
2022-10-10T05:33:44.011Z,19.9
2022-10-10T05:35:46.056Z,17.5
2022-10-10T05:37:51.286Z,20.7
2022-10-10T05:41:55.481Z,18
2022-10-10T05:43:57.560Z,17.5
2022-10-10T05:45:59.623Z,20.1
2022-10-10T05:50:03.767Z,19.3
2022-10-10T05:52:09.003Z,18.1
2022-10-10T06:00:17.339Z,19.5
2022-10-10T06:02:19.502Z,18.4
2022-10-10T06:04:21.481Z,19
2022-10-10T06:06:26.708Z,20.7
2022-10-10T06:08:28.814Z,22.9
2022-10-10T06:10:30.922Z,21.6
2022-10-10T06:12:32.985Z,22
2022-10-10T06:14:35.060Z,20.9
2022-10-10T06:16:37.135Z,20.8
2022-10-10T06:18:39.227Z,21.8
2022-10-10T06:20:44.581Z,23.5
2022-10-10T06:22:46.536Z,24.5
2022-10-10T06:24:52.278Z,25
2022-10-10T06:25:51.264Z,26
2022-10-10T06:29:55.407Z,22.4
2022-10-10T06:31:57.500Z,24.1
2022-10-10T06:34:02.751Z,24.9
2022-10-10T06:36:04.970Z,24.5
2022-10-10T06:38:06.927Z,23.7
2022-10-10T06:40:09.000Z,24.8
2022-10-10T06:42:11.086Z,24.5
2022-10-10T06:44:13.195Z,24.1
2022-10-10T06:46:15.433Z,26.4
2022-10-10T06:48:20.531Z,26.6
2022-10-10T06:50:22.603Z,24
2022-10-10T06:52:24.753Z,25
2022-10-10T06:54:26.792Z,26.5
2022-10-10T06:56:28.927Z,27.2
2022-10-10T06:58:31.013Z,27
2022-10-10T07:00:33.094Z,28.9
2022-10-10T07:02:38.355Z,25.6
2022-10-10T07:04:40.457Z,28.1
2022-10-10T07:06:42.545Z,26.8
2022-10-10T07:08:44.670Z,26.4
2022-10-10T07:10:46.755Z,27.2
2022-10-10T07:12:48.871Z,26
2022-10-10T07:14:50.977Z,25.8
2022-10-10T07:16:56.425Z,31.1
2022-10-10T07:18:58.328Z,26.9
2022-10-10T07:21:00.446Z,27.9
2022-10-10T07:22:03.164Z,26.6
2022-10-10T07:24:05.263Z,25.7
2022-10-10T07:26:07.282Z,28.2
2022-10-10T07:28:09.477Z,29.1
2022-10-10T07:30:14.672Z,28.7
2022-10-10T07:32:16.813Z,27
2022-10-10T07:34:18.932Z,25.6
2022-10-10T07:36:21.049Z,28.1
2022-10-10T07:38:23.143Z,28.4
2022-10-10T07:40:25.276Z,24.6
2022-10-10T07:42:27.393Z,27
2022-10-10T07:44:34.707Z,27.9
2022-10-10T07:46:34.706Z,27.1
2022-10-10T07:48:36.810Z,25.8
2022-10-10T07:50:38.927Z,24
2022-10-10T07:52:40.950Z,23.1
2022-10-10T07:54:42.943Z,23.3
2022-10-10T07:58:50.036Z,22.4
2022-10-10T08:04:56.208Z,20.6
2022-10-10T08:06:58.219Z,18.3
2022-10-10T08:09:00.251Z,21.1
2022-10-10T08:15:09.405Z,14.8
2022-10-10T08:17:11.451Z,14.5
2022-10-10T08:21:34.143Z,12.8
2022-10-10T08:23:36.146Z,11.5
2022-10-10T08:25:41.238Z,11.7
2022-10-10T08:27:43.297Z,10.6
2022-10-10T08:29:45.322Z,8.1
2022-10-10T08:31:47.367Z,8.9
2022-10-10T08:33:49.388Z,9.9
2022-10-10T08:35:51.428Z,9.7
2022-10-10T08:37:53.462Z,10.5
2022-10-10T08:42:00.583Z,9.4
2022-10-10T08:44:02.718Z,8.7
2022-10-10T08:46:04.637Z,9.2
2022-10-10T08:48:06.659Z,7.9
2022-10-10T08:50:08.688Z,8.3
2022-10-10T08:52:10.718Z,7.7
2022-10-10T08:54:15.824Z,7.3
2022-10-10T08:56:17.843Z,6.7
2022-10-10T08:58:19.901Z,8.1
2022-10-10T09:00:21.905Z,8.3
2022-10-10T09:02:29.614Z,9
2022-10-10T09:04:26.035Z,7.9
2022-10-10T09:06:27.990Z,7.4
2022-10-10T09:10:35.128Z,7.4
2022-10-10T09:12:37.161Z,7
2022-10-10T09:15:41.768Z,6.4
2022-10-10T09:17:43.735Z,6.9
2022-10-10T09:21:50.876Z,6.8
2022-10-10T09:23:52.909Z,7.1
2022-10-10T09:25:54.929Z,6.2
2022-10-10T09:27:56.979Z,7.8
2022-10-10T09:29:58.991Z,7.3
2022-10-10T09:32:01.036Z,6.1
2022-10-10T09:34:03.066Z,7.2
2022-10-10T09:36:08.148Z,5.6
2022-10-10T09:38:10.158Z,6
2022-10-10T09:40:13.854Z,5.7
2022-10-10T09:42:15.708Z,7.4
2022-10-10T09:44:17.749Z,5.9
2022-10-10T09:46:19.752Z,7.5
2022-10-10T09:48:21.783Z,5.7
2022-10-10T09:50:27.053Z,5.3
2022-10-10T09:52:28.901Z,5.7
2022-10-10T09:54:30.927Z,6.4
2022-10-10T09:56:32.939Z,5.7
2022-10-10T09:58:34.958Z,5.1
2022-10-10T10:00:37.098Z,5.3
2022-10-10T10:02:39.003Z,5.2
2022-10-10T10:04:44.059Z,4.8
2022-10-10T10:06:46.073Z,6
2022-10-10T10:09:50.637Z,5.6
2022-10-10T10:11:52.669Z,4.6
2022-10-10T10:13:54.719Z,5.2
2022-10-10T10:15:56.720Z,4.4
2022-10-10T10:18:01.797Z,6.1
2022-10-10T10:20:06.498Z,5.2
2022-10-10T10:22:05.838Z,5.7
2022-10-10T10:24:07.849Z,4.7
2022-10-10T10:26:09.884Z,4.3
2022-10-10T10:28:12.053Z,5.8
2022-10-10T10:30:13.908Z,5.3
2022-10-10T10:32:19.006Z,5
2022-10-10T10:36:23.115Z,4.3
2022-10-10T10:38:25.066Z,4.4
2022-10-10T10:40:27.074Z,4.8
2022-10-10T10:42:29.107Z,5
2022-10-10T10:44:31.123Z,4.4
2022-10-10T10:46:36.219Z,4.9
2022-10-10T10:48:38.222Z,4.2
2022-10-10T10:50:40.271Z,4.8
2022-10-10T10:52:42.245Z,5.9
2022-10-10T10:54:45.641Z,4.2
2022-10-10T10:56:46.532Z,4.3
2022-10-10T10:59:22.508Z,5.4
2022-10-10T11:01:21.192Z,5.8
2022-10-10T11:03:06.028Z,4.8
2022-10-10T11:05:21.054Z,6.5
2022-10-10T11:06:00.485Z,6.5
2022-10-10T11:08:02.439Z,7.5
2022-10-10T11:10:04.448Z,6.8
2022-10-10T11:12:06.469Z,8.1
2022-10-10T11:14:11.564Z,7.8
2022-10-10T11:16:30.024Z,7.4
2022-10-10T11:18:15.574Z,8.3
2022-10-10T11:20:17.601Z,6.7
2022-10-10T11:22:19.607Z,5.7
2022-10-10T11:24:21.633Z,6.9
2022-10-10T11:26:23.663Z,6.6
2022-10-10T11:28:28.768Z,5.3
2022-10-10T11:30:30.735Z,6.8
2022-10-10T11:32:32.820Z,5.8
2022-10-10T11:34:34.764Z,6.3
2022-10-10T11:36:36.818Z,5.1
2022-10-10T11:38:38.798Z,4.8
2022-10-10T11:40:40.792Z,6.6
2022-10-10T11:42:45.881Z,5.6
2022-10-10T11:44:47.889Z,6.1
2022-10-10T11:48:51.908Z,5.6
2022-10-10T11:50:53.907Z,5.1
2022-10-10T11:52:55.912Z,6.2
2022-10-10T12:05:31.723Z,5.4
2022-10-10T12:07:33.710Z,6.9
2022-10-10T12:09:38.813Z,5.1
2022-10-10T12:11:40.775Z,5.2
2022-10-10T12:13:42.772Z,5.6
2022-10-10T12:15:49.906Z,4.9
2022-10-10T12:17:46.745Z,5.3
2022-10-10T12:19:48.729Z,6
2022-10-10T12:21:50.713Z,4.9
2022-10-10T12:23:55.781Z,6.2
2022-10-10T12:25:57.849Z,5.7
2022-10-10T12:27:59.763Z,6.2
2022-10-10T12:30:01.789Z,6.2
2022-10-10T12:32:03.756Z,6.7
2022-10-10T12:34:05.749Z,6.9
2022-10-10T12:36:07.810Z,7.2
2022-10-10T12:38:12.822Z,7.1
2022-10-10T12:40:14.830Z,6.2
2022-10-10T12:42:16.824Z,6.4
2022-10-10T12:44:18.833Z,5.8
2022-10-10T12:46:20.848Z,6.9
2022-10-10T12:48:22.849Z,7.1
2022-10-10T12:50:24.859Z,7.7
2022-10-10T12:52:29.946Z,7.3
2022-10-10T12:54:31.946Z,7.1
2022-10-10T12:56:33.967Z,7
2022-10-10T12:57:36.519Z,8.2
2022-10-10T12:59:38.510Z,9.3
2022-10-10T13:01:40.586Z,8.4
2022-10-10T13:03:42.538Z,7.9
2022-10-10T13:07:49.651Z,9
2022-10-10T13:09:51.804Z,10
2022-10-10T13:11:53.698Z,9.7
2022-10-10T13:13:55.704Z,7.8
2022-10-10T13:15:57.718Z,8.4
2022-10-10T13:17:59.726Z,9
2022-10-10T13:20:04.995Z,10
2022-10-10T13:22:06.856Z,7.9
2022-10-10T13:24:08.866Z,8.8
2022-10-10T13:26:10.904Z,8.9
2022-10-10T13:28:12.944Z,10.1
2022-10-10T13:30:14.925Z,10.4
2022-10-10T13:32:16.968Z,10.1
2022-10-10T13:34:24.775Z,10.4
2022-10-10T13:36:24.080Z,9.2
2022-10-10T13:38:26.099Z,9.6
2022-10-10T13:40:28.145Z,10.3
2022-10-10T13:42:30.166Z,9.6
2022-10-10T13:44:32.182Z,9.8
2022-10-10T13:46:34.222Z,9.9
2022-10-10T13:48:39.322Z,13.3
2022-10-10T13:50:41.339Z,12.1
2022-10-10T13:53:45.902Z,12.6
2022-10-10T13:55:47.944Z,11
2022-10-10T13:59:51.997Z,12.2
2022-10-10T14:01:57.166Z,10.6
2022-10-10T14:03:59.113Z,11.6
2022-10-10T14:06:01.134Z,11.8
2022-10-10T14:08:03.156Z,10.7
2022-10-10T14:10:05.173Z,11.6
2022-10-10T14:12:07.229Z,12.9
2022-10-10T14:14:09.292Z,12.5
2022-10-10T14:16:14.394Z,13.2
2022-10-10T14:18:16.417Z,15.5
2022-10-10T14:20:18.438Z,12.7
2022-10-10T14:22:20.469Z,12
2022-10-10T14:24:22.517Z,7.8
2022-10-10T14:26:24.521Z,2
2022-10-10T14:28:26.625Z,1.4
2022-10-10T14:30:31.640Z,1.2
2022-10-10T14:32:33.665Z,0.8
2022-10-10T14:34:35.706Z,0.8
2022-10-10T14:36:37.751Z,1.1
2022-10-10T14:40:41.791Z,0.9
2022-10-10T14:44:48.921Z,1.3
2022-10-10T14:46:50.956Z,1
2022-10-10T14:48:52.996Z,1.1
2022-10-10T14:49:55.541Z,1.1
2022-10-10T14:51:57.584Z,1.5
2022-10-10T14:54:12.067Z,0.8
2022-10-10T14:56:01.638Z,1
2022-10-10T14:58:06.731Z,1
2022-10-10T15:00:08.784Z,1.3
2022-10-10T15:02:10.788Z,2.1
2022-10-10T15:04:12.843Z,1.2
2022-10-10T15:06:14.872Z,1
2022-10-10T15:08:16.908Z,1.3
2022-10-10T15:10:33.299Z,2
2022-10-10T15:12:24.056Z,3.7
2022-10-10T15:14:26.085Z,1.8
2022-10-10T15:22:34.209Z,2.1
2022-10-10T15:24:36.243Z,1.5
2022-10-10T15:28:43.400Z,1.4
2022-10-10T15:30:45.384Z,2.2
2022-10-10T15:38:55.027Z,4.1
2022-10-10T15:45:04.175Z,2.5
2022-10-10T15:47:27.040Z,2.7
2022-10-10T15:49:29.052Z,2.3
2022-10-10T15:51:31.077Z,2.1
2022-10-10T15:53:36.205Z,3
2022-10-10T15:55:38.213Z,2.4
2022-10-10T16:01:44.317Z,2.4
2022-10-10T16:03:46.358Z,2.1
2022-10-10T16:05:48.401Z,3
2022-10-10T16:07:53.492Z,3.1
2022-10-10T16:11:57.555Z,2.4
2022-10-10T16:13:59.582Z,2.1
2022-10-10T16:16:01.970Z,2.2
2022-10-10T16:18:03.659Z,3.3
2022-10-10T16:20:05.724Z,2.8
2022-10-10T16:22:12.042Z,2.7
2022-10-10T16:24:12.820Z,3.4
2022-10-10T16:26:14.872Z,2.9
2022-10-10T16:34:22.983Z,2.6
2022-10-10T16:36:28.075Z,3.3
2022-10-10T16:38:30.103Z,3.4
2022-10-10T16:40:32.146Z,2.8
2022-10-10T16:41:47.614Z,3.6
2022-10-10T16:43:36.696Z,3.5
2022-10-10T16:45:38.741Z,6.1
2022-10-10T16:47:40.765Z,5.5
2022-10-10T16:49:46.009Z,4.6
2022-10-10T16:51:47.899Z,4.5
2022-10-10T16:53:49.908Z,4.4
2022-10-10T16:55:51.951Z,5.3
2022-10-10T16:57:53.985Z,5.6
2022-10-10T16:59:56.077Z,5.5
2022-10-10T17:01:58.057Z,4.7
2022-10-10T17:04:03.145Z,4.4
2022-10-10T17:06:05.188Z,4.7
2022-10-10T17:08:07.221Z,3.9
2022-10-10T17:10:09.257Z,5.2
2022-10-10T17:12:11.286Z,5.1
2022-10-10T17:14:13.315Z,6.6
2022-10-10T17:16:59.376Z,6
2022-10-10T17:18:20.447Z,7
2022-10-10T17:20:22.455Z,9.2
2022-10-10T17:22:24.509Z,7.3
2022-10-10T17:24:26.545Z,7.6
2022-10-10T17:26:28.572Z,6.7
2022-10-10T17:28:30.694Z,7.5
2022-10-10T17:30:32.633Z,6
2022-10-10T17:32:37.734Z,7.6
2022-10-10T17:34:39.758Z,6.7
2022-10-10T17:36:41.786Z,6.4
2022-10-10T17:37:44.328Z,6.8
2022-10-10T17:39:46.356Z,7.6
2022-10-10T17:41:48.441Z,6.2
2022-10-10T17:43:50.436Z,5.9
2022-10-10T17:46:05.215Z,7.8
2022-10-10T17:47:57.535Z,7.1
2022-10-10T17:49:59.568Z,7.9
2022-10-10T17:52:01.606Z,6.5
2022-10-10T17:54:03.644Z,7.7
2022-10-10T17:56:05.750Z,6.7
2022-10-10T17:58:07.710Z,8.5
2022-10-10T18:00:12.782Z,7.8
2022-10-10T18:02:14.824Z,6.2
2022-10-10T18:04:16.875Z,7.9
2022-10-10T18:06:18.908Z,7.4
2022-10-10T18:08:20.930Z,7.6
2022-10-10T18:10:22.961Z,8.5
2022-10-10T18:12:25.001Z,6.7
2022-10-10T18:14:30.082Z,8.6
2022-10-10T18:16:32.110Z,7
2022-10-10T18:18:34.117Z,8.1
2022-10-10T18:20:36.154Z,6.2
2022-10-10T18:22:38.187Z,7.1
2022-10-10T18:24:40.230Z,5.8
2022-10-10T18:28:47.394Z,4.9
2022-10-10T18:30:49.380Z,6.3
2022-10-10T18:32:51.407Z,5.7
2022-10-10T18:33:53.962Z,6.1
2022-10-10T18:35:56.061Z,6.6
2022-10-10T18:37:58.022Z,6.4
2022-10-10T18:40:00.057Z,7
2022-10-10T18:42:05.165Z,5.5
2022-10-10T18:44:07.197Z,6.2
2022-10-10T18:46:09.198Z,5.4
2022-10-10T18:48:11.292Z,8.8
2022-10-10T18:50:13.271Z,5.3
2022-10-10T18:52:15.301Z,6.2
2022-10-10T18:54:17.334Z,5.9
2022-10-10T18:56:22.430Z,7.2
2022-10-10T18:58:24.491Z,7.7
2022-10-10T19:00:26.487Z,6.9
2022-10-10T19:02:28.520Z,7.8
2022-10-10T19:04:30.536Z,7.1
2022-10-10T19:06:32.575Z,7.2
2022-10-10T19:08:34.647Z,9.2
2022-10-10T19:10:39.705Z,8.6
2022-10-10T19:12:45.217Z,7.8
2022-10-10T19:14:43.747Z,8.6
2022-10-10T19:16:45.783Z,6.4
2022-10-10T19:18:47.832Z,10.3
2022-10-10T19:20:49.944Z,8
2022-10-10T19:22:51.976Z,12.4
2022-10-10T19:24:57.050Z,15.4
2022-10-10T19:26:59.047Z,13.4
2022-10-10T19:29:06.456Z,12.3
2022-10-10T19:31:23.793Z,10.8
2022-10-10T19:33:25.805Z,9.1
2022-10-10T19:35:27.834Z,11
2022-10-10T19:37:32.912Z,9.7
2022-10-10T19:39:34.936Z,8.2
2022-10-10T19:41:36.940Z,8.5
2022-10-10T19:43:38.948Z,6.8
2022-10-10T19:45:40.983Z,6.6
2022-10-10T19:47:43.023Z,7.2
2022-10-10T19:49:45.242Z,7.3
2022-10-10T19:51:50.129Z,7.6
2022-10-10T19:53:52.140Z,7.4
2022-10-10T19:55:54.165Z,7.1
2022-10-10T19:57:56.187Z,7.7
2022-10-10T19:59:58.222Z,7.3
2022-10-10T20:02:00.313Z,7.6
2022-10-10T20:04:02.261Z,7.1
2022-10-10T20:06:07.498Z,8.5
2022-10-10T20:08:09.368Z,7.1
2022-10-10T20:10:11.378Z,10
2022-10-10T20:12:13.411Z,8.5
2022-10-10T20:14:15.546Z,8.4
2022-10-10T20:16:17.587Z,8.9
2022-10-10T20:18:19.693Z,8.4
2022-10-10T20:20:24.655Z,8
2022-10-10T20:22:26.670Z,7.6
2022-10-10T20:24:28.689Z,6.7
2022-10-10T20:25:31.235Z,7.2
2022-10-10T20:27:33.377Z,7.8
2022-10-10T20:29:35.497Z,7.7
2022-10-10T20:31:37.627Z,8.2
2022-10-10T20:33:42.768Z,6.6
2022-10-10T20:35:44.910Z,7.2
2022-10-10T20:37:47.018Z,7
2022-10-10T20:39:49.146Z,8.3
2022-10-10T20:43:53.408Z,6.9
2022-10-10T20:45:55.499Z,7.3
2022-10-10T20:48:00.788Z,8.2
2022-10-10T20:50:02.901Z,8.3
2022-10-10T20:52:05.009Z,8.7
2022-10-10T20:54:07.142Z,9.1
2022-10-10T20:56:09.250Z,10.5
2022-10-10T21:00:13.465Z,9.6
2022-10-10T21:06:22.969Z,14.6
2022-10-10T21:08:25.093Z,13.5
2022-10-10T21:12:29.345Z,12
2022-10-10T21:14:31.432Z,10.7
2022-10-10T21:16:36.694Z,13.8
2022-10-10T21:18:38.791Z,10.7
2022-10-10T21:21:43.548Z,12.8
2022-10-10T21:23:47.178Z,11.9
2022-10-10T21:25:49.244Z,9.8
2022-10-10T21:27:51.368Z,12.1
2022-10-10T21:29:56.632Z,11.8
2022-10-10T21:34:00.866Z,10.1
2022-10-10T21:36:03.509Z,11.3
2022-10-10T21:38:05.102Z,9.5
2022-10-10T21:40:07.191Z,7.8
2022-10-10T21:42:09.306Z,14.3
2022-10-10T21:44:14.571Z,10.2
2022-10-10T21:46:16.670Z,9
2022-10-10T21:48:18.797Z,9.7
2022-10-10T21:50:20.906Z,10.4
2022-10-10T21:54:25.135Z,13.2
2022-10-10T21:56:27.221Z,11.2
2022-10-10T21:58:32.502Z,12.6
2022-10-10T22:00:34.691Z,13.3
2022-10-10T22:02:36.722Z,11.3
2022-10-10T22:04:38.856Z,15.2
2022-10-10T22:06:40.961Z,15.6
2022-10-10T22:08:43.079Z,16.7
2022-10-10T22:10:45.184Z,13.8
2022-10-10T22:12:50.471Z,16.4
2022-10-10T22:14:52.589Z,17.6
2022-10-10T22:16:54.712Z,16.8
2022-10-10T22:17:57.302Z,16.9
2022-10-10T22:19:59.422Z,13.4
2022-10-10T22:22:01.526Z,15.8
2022-10-10T22:24:03.649Z,15.6
2022-10-10T22:26:08.888Z,15.8
2022-10-10T22:28:11.159Z,12.3
2022-10-10T22:30:13.105Z,13
2022-10-10T22:32:15.240Z,12.8
2022-10-10T22:34:17.315Z,10.8
2022-10-10T22:36:19.425Z,12
2022-10-10T22:38:21.517Z,13.6
2022-10-10T22:40:26.759Z,13.3
2022-10-10T22:42:28.876Z,13.4
2022-10-10T22:44:30.966Z,12.5
2022-10-10T22:46:33.055Z,13.4
2022-10-10T22:48:35.216Z,13
2022-10-10T22:50:37.328Z,13.5
2022-10-10T22:52:39.443Z,12.9
2022-10-10T22:54:44.686Z,12.9
2022-10-10T22:56:46.788Z,15.4
2022-10-10T22:58:48.869Z,12.2
2022-10-10T23:00:51.081Z,13.8
2022-10-10T23:02:53.118Z,13.9
2022-10-10T23:06:57.343Z,14.1
2022-10-10T23:09:02.601Z,14.5
2022-10-10T23:13:06.800Z,15
2022-10-10T23:19:34.123Z,15.1
2022-10-10T23:21:39.391Z,17.1
2022-10-10T23:23:41.506Z,15.5
2022-10-10T23:27:45.727Z,18.2
2022-10-10T23:29:47.825Z,15.8
2022-10-10T23:31:49.929Z,15.7
2022-10-10T23:33:52.063Z,16.5
2022-10-10T23:35:57.326Z,17.9
2022-10-10T23:37:59.437Z,15.3
2022-10-10T23:40:01.513Z,15.1
2022-10-10T23:42:03.628Z,16.6
2022-10-10T23:46:08.519Z,16.8
2022-10-10T23:48:09.895Z,18.6
2022-10-10T23:52:17.258Z,15.5
2022-10-10T23:54:19.363Z,15.8
2022-10-10T23:56:21.444Z,16.8
2022-10-10T23:58:23.555Z,18
